sensor_id;sensor_type;location;lat;lon;timestamp;P1;durP1;ratioP1;P2;durP2;ratioP2
30080;SDS011;16902;50.816;12.828;2023-01-01T00:00:43;16.13;;;14.68;;
30080;SDS011;16902;50.816;12.828;2023-01-01T00:05:45;14.40;;;13.10;;
30080;SDS011;16902;50.816;12.828;2023-01-01T00:10:46;14.25;;;13.05;;
30080;SDS011;16902;50.816;12.828;2023-01-01T00:15:48;16.55;;;13.40;;
30080;SDS011;16902;50.816;12.828;2023-01-01T00:20:50;12.20;;;11.23;;
30080;SDS011;16902;50.816;12.828;2023-01-01T00:25:52;10.80;;;10.05;;
30080;SDS011;16902;50.816;12.828;2023-01-01T00:30:54;13.77;;;12.48;;
30080;SDS011;16902;50.816;12.828;2023-01-01T00:35:55;10.77;;;9.98;;
30080;SDS011;16902;50.816;12.828;2023-01-01T00:40:57;9.95;;;9.20;;
30080;SDS011;16902;50.816;12.828;2023-01-01T00:45:59;9.32;;;8.75;;
30080;SDS011;16902;50.816;12.828;2023-01-01T00:51:02;9.52;;;8.93;;
30080;SDS011;16902;50.816;12.828;2023-01-01T00:56:04;10.17;;;9.47;;
30080;SDS011;16902;50.816;12.828;2023-01-01T01:01:06;9.38;;;8.88;;
30080;SDS011;16902;50.816;12.828;2023-01-01T01:06:09;9.70;;;9.10;;
30080;SDS011;16902;50.816;12.828;2023-01-01T01:11:14;10.32;;;9.73;;
30080;SDS011;16902;50.816;12.828;2023-01-01T01:16:28;9.93;;;9.32;;
30080;SDS011;16902;50.816;12.828;2023-01-01T01:21:33;9.73;;;9.07;;
30080;SDS011;16902;50.816;12.828;2023-01-01T01:26:35;10.20;;;9.50;;
30080;SDS011;16902;50.816;12.828;2023-01-01T01:31:37;9.45;;;8.85;;
30080;SDS011;16902;50.816;12.828;2023-01-01T01:36:39;9.27;;;8.55;;
30080;SDS011;16902;50.816;12.828;2023-01-01T01:41:40;9.57;;;8.93;;
30080;SDS011;16902;50.816;12.828;2023-01-01T01:46:42;9.55;;;8.70;;
30080;SDS011;16902;50.816;12.828;2023-01-01T01:51:45;10.15;;;9.45;;
30080;SDS011;16902;50.816;12.828;2023-01-01T01:56:49;10.00;;;9.40;;
30080;SDS011;16902;50.816;12.828;2023-01-01T02:01:55;9.73;;;9.13;;
30080;SDS011;16902;50.816;12.828;2023-01-01T02:06:58;10.55;;;9.85;;
30080;SDS011;16902;50.816;12.828;2023-01-01T02:12:00;9.63;;;9.10;;
30080;SDS011;16902;50.816;12.828;2023-01-01T02:17:05;10.55;;;9.82;;
30080;SDS011;16902;50.816;12.828;2023-01-01T02:27:51;10.07;;;9.38;;
30080;SDS011;16902;50.816;12.828;2023-01-01T02:33:03;10.95;;;10.05;;
30080;SDS011;16902;50.816;12.828;2023-01-01T02:43:11;9.55;;;8.95;;
30080;SDS011;16902;50.816;12.828;2023-01-01T02:53:37;9.90;;;9.18;;
30080;SDS011;16902;50.816;12.828;2023-01-01T03:15:13;11.00;;;9.95;;
30080;SDS011;16902;50.816;12.828;2023-01-01T03:20:26;11.15;;;10.25;;
30080;SDS011;16902;50.816;12.828;2023-01-01T03:25:32;10.75;;;9.82;;
30080;SDS011;16902;50.816;12.828;2023-01-01T03:30:39;10.02;;;9.32;;
30080;SDS011;16902;50.816;12.828;2023-01-01T03:35:45;10.13;;;9.32;;
30080;SDS011;16902;50.816;12.828;2023-01-01T03:40:52;10.18;;;9.27;;
30080;SDS011;16902;50.816;12.828;2023-01-01T03:46:01;10.00;;;9.25;;
30080;SDS011;16902;50.816;12.828;2023-01-01T03:51:08;10.15;;;9.30;;
30080;SDS011;16902;50.816;12.828;2023-01-01T03:56:39;10.00;;;9.20;;
30080;SDS011;16902;50.816;12.828;2023-01-01T04:01:47;9.68;;;9.02;;
30080;SDS011;16902;50.816;12.828;2023-01-01T04:06:53;10.15;;;9.35;;
30080;SDS011;16902;50.816;12.828;2023-01-01T04:11:57;9.80;;;9.10;;
30080;SDS011;16902;50.816;12.828;2023-01-01T04:17:04;10.35;;;9.65;;
30080;SDS011;16902;50.816;12.828;2023-01-01T04:22:07;10.20;;;9.10;;
30080;SDS011;16902;50.816;12.828;2023-01-01T04:27:09;10.32;;;9.63;;
30080;SDS011;16902;50.816;12.828;2023-01-01T04:32:11;9.77;;;9.07;;
30080;SDS011;16902;50.816;12.828;2023-01-01T04:37:13;9.77;;;8.98;;
30080;SDS011;16902;50.816;12.828;2023-01-01T04:42:15;9.35;;;8.55;;
30080;SDS011;16902;50.816;12.828;2023-01-01T04:47:17;10.75;;;9.95;;
30080;SDS011;16902;50.816;12.828;2023-01-01T04:52:19;9.70;;;8.90;;
30080;SDS011;16902;50.816;12.828;2023-01-01T04:57:22;9.48;;;8.85;;
30080;SDS011;16902;50.816;12.828;2023-01-01T05:02:24;8.80;;;8.20;;
30080;SDS011;16902;50.816;12.828;2023-01-01T05:07:26;9.55;;;8.65;;
30080;SDS011;16902;50.816;12.828;2023-01-01T05:12:28;9.30;;;8.60;;
30080;SDS011;16902;50.816;12.828;2023-01-01T05:17:30;9.45;;;8.77;;
30080;SDS011;16902;50.816;12.828;2023-01-01T05:22:32;9.52;;;8.82;;
30080;SDS011;16902;50.816;12.828;2023-01-01T05:27:34;9.60;;;8.77;;
30080;SDS011;16902;50.816;12.828;2023-01-01T05:32:36;9.77;;;8.88;;
30080;SDS011;16902;50.816;12.828;2023-01-01T05:37:38;10.52;;;9.70;;
30080;SDS011;16902;50.816;12.828;2023-01-01T05:42:40;10.68;;;9.70;;
30080;SDS011;16902;50.816;12.828;2023-01-01T05:47:42;10.30;;;9.35;;
30080;SDS011;16902;50.816;12.828;2023-01-01T05:52:44;10.65;;;9.85;;
30080;SDS011;16902;50.816;12.828;2023-01-01T05:57:45;10.13;;;9.30;;
30080;SDS011;16902;50.816;12.828;2023-01-01T06:02:47;10.48;;;9.45;;
30080;SDS011;16902;50.816;12.828;2023-01-01T06:07:51;10.75;;;9.85;;
30080;SDS011;16902;50.816;12.828;2023-01-01T06:12:56;10.40;;;9.50;;
30080;SDS011;16902;50.816;12.828;2023-01-01T06:18:01;10.98;;;9.88;;
30080;SDS011;16902;50.816;12.828;2023-01-01T06:23:02;11.20;;;10.27;;
30080;SDS011;16902;50.816;12.828;2023-01-01T06:28:07;11.35;;;10.32;;
30080;SDS011;16902;50.816;12.828;2023-01-01T06:33:09;11.38;;;10.48;;
30080;SDS011;16902;50.816;12.828;2023-01-01T06:38:11;10.85;;;9.77;;
30080;SDS011;16902;50.816;12.828;2023-01-01T06:43:12;11.75;;;10.75;;
30080;SDS011;16902;50.816;12.828;2023-01-01T06:48:14;11.75;;;10.63;;
30080;SDS011;16902;50.816;12.828;2023-01-01T06:53:16;11.90;;;10.80;;
30080;SDS011;16902;50.816;12.828;2023-01-01T06:58:18;11.43;;;10.43;;
30080;SDS011;16902;50.816;12.828;2023-01-01T07:03:20;11.48;;;10.45;;
30080;SDS011;16902;50.816;12.828;2023-01-01T07:08:22;11.55;;;10.57;;
30080;SDS011;16902;50.816;12.828;2023-01-01T07:13:24;13.73;;;10.63;;
30080;SDS011;16902;50.816;12.828;2023-01-01T07:18:27;11.52;;;10.63;;
30080;SDS011;16902;50.816;12.828;2023-01-01T07:23:30;10.95;;;10.02;;
30080;SDS011;16902;50.816;12.828;2023-01-01T07:28:34;10.80;;;9.98;;
30080;SDS011;16902;50.816;12.828;2023-01-01T07:33:36;11.80;;;10.60;;
30080;SDS011;16902;50.816;12.828;2023-01-01T07:38:37;11.43;;;10.50;;
30080;SDS011;16902;50.816;12.828;2023-01-01T07:43:39;11.98;;;10.98;;
30080;SDS011;16902;50.816;12.828;2023-01-01T07:48:41;11.20;;;10.23;;
30080;SDS011;16902;50.816;12.828;2023-01-01T07:53:43;11.35;;;10.45;;
30080;SDS011;16902;50.816;12.828;2023-01-01T07:58:45;10.65;;;9.88;;
30080;SDS011;16902;50.816;12.828;2023-01-01T08:03:50;11.48;;;10.52;;
30080;SDS011;16902;50.816;12.828;2023-01-01T08:08:53;11.63;;;10.68;;
30080;SDS011;16902;50.816;12.828;2023-01-01T08:13:55;11.70;;;10.80;;
30080;SDS011;16902;50.816;12.828;2023-01-01T08:18:56;11.45;;;10.45;;
30080;SDS011;16902;50.816;12.828;2023-01-01T08:23:58;11.02;;;10.02;;
30080;SDS011;16902;50.816;12.828;2023-01-01T08:29:01;10.45;;;9.75;;
30080;SDS011;16902;50.816;12.828;2023-01-01T08:34:05;10.70;;;9.68;;
30080;SDS011;16902;50.816;12.828;2023-01-01T08:39:07;11.10;;;10.25;;
30080;SDS011;16902;50.816;12.828;2023-01-01T08:44:09;10.85;;;10.05;;
30080;SDS011;16902;50.816;12.828;2023-01-01T08:49:11;10.70;;;9.80;;
30080;SDS011;16902;50.816;12.828;2023-01-01T08:54:13;10.90;;;9.90;;
30080;SDS011;16902;50.816;12.828;2023-01-01T08:59:15;9.82;;;9.18;;
30080;SDS011;16902;50.816;12.828;2023-01-01T09:04:17;9.80;;;9.20;;
30080;SDS011;16902;50.816;12.828;2023-01-01T09:09:19;10.70;;;9.85;;
30080;SDS011;16902;50.816;12.828;2023-01-01T09:14:27;10.80;;;9.80;;
30080;SDS011;16902;50.816;12.828;2023-01-01T09:19:29;10.43;;;9.57;;
30080;SDS011;16902;50.816;12.828;2023-01-01T09:24:31;11.25;;;10.25;;
30080;SDS011;16902;50.816;12.828;2023-01-01T09:29:33;10.48;;;9.68;;
30080;SDS011;16902;50.816;12.828;2023-01-01T09:34:35;10.95;;;10.15;;
30080;SDS011;16902;50.816;12.828;2023-01-01T09:39:37;11.40;;;10.50;;
30080;SDS011;16902;50.816;12.828;2023-01-01T09:50:13;10.30;;;9.43;;
30080;SDS011;16902;50.816;12.828;2023-01-01T09:55:25;11.15;;;10.25;;
30080;SDS011;16902;50.816;12.828;2023-01-01T10:00:29;10.70;;;10.00;;
30080;SDS011;16902;50.816;12.828;2023-01-01T10:05:48;10.85;;;10.02;;
30080;SDS011;16902;50.816;12.828;2023-01-01T10:11:09;10.95;;;10.00;;
30080;SDS011;16902;50.816;12.828;2023-01-01T10:21:30;11.50;;;10.73;;
30080;SDS011;16902;50.816;12.828;2023-01-01T10:26:34;10.88;;;10.10;;
30080;SDS011;16902;50.816;12.828;2023-01-01T10:31:38;11.05;;;10.18;;
30080;SDS011;16902;50.816;12.828;2023-01-01T10:36:43;11.73;;;10.57;;
30080;SDS011;16902;50.816;12.828;2023-01-01T10:41:45;11.23;;;10.18;;
30080;SDS011;16902;50.816;12.828;2023-01-01T10:46:49;11.82;;;10.82;;
30080;SDS011;16902;50.816;12.828;2023-01-01T10:51:56;10.82;;;9.85;;
30080;SDS011;16902;50.816;12.828;2023-01-01T10:57:11;11.80;;;10.40;;
30080;SDS011;16902;50.816;12.828;2023-01-01T11:14:55;11.75;;;10.85;;
30080;SDS011;16902;50.816;12.828;2023-01-01T11:20:00;11.02;;;10.27;;
30080;SDS011;16902;50.816;12.828;2023-01-01T11:25:09;11.88;;;10.98;;
30080;SDS011;16902;50.816;12.828;2023-01-01T11:30:22;11.82;;;10.82;;
30080;SDS011;16902;50.816;12.828;2023-01-01T11:35:25;11.32;;;10.57;;
30080;SDS011;16902;50.816;12.828;2023-01-01T11:40:35;11.52;;;10.73;;
30080;SDS011;16902;50.816;12.828;2023-01-01T11:45:40;11.75;;;10.48;;
30080;SDS011;16902;50.816;12.828;2023-01-01T11:50:50;12.07;;;10.95;;
30080;SDS011;16902;50.816;12.828;2023-01-01T12:01:39;12.82;;;10.75;;
30080;SDS011;16902;50.816;12.828;2023-01-01T12:07:17;11.60;;;10.60;;
30080;SDS011;16902;50.816;12.828;2023-01-01T12:12:30;12.30;;;11.30;;
30080;SDS011;16902;50.816;12.828;2023-01-01T12:17:40;12.20;;;11.20;;
30080;SDS011;16902;50.816;12.828;2023-01-01T12:22:44;12.20;;;11.32;;
30080;SDS011;16902;50.816;12.828;2023-01-01T12:33:18;11.65;;;10.75;;
30080;SDS011;16902;50.816;12.828;2023-01-01T12:50:07;10.98;;;9.93;;
30080;SDS011;16902;50.816;12.828;2023-01-01T13:00:37;12.18;;;11.27;;
30080;SDS011;16902;50.816;12.828;2023-01-01T13:05:43;11.30;;;10.45;;
30080;SDS011;16902;50.816;12.828;2023-01-01T13:10:53;10.60;;;9.80;;
30080;SDS011;16902;50.816;12.828;2023-01-01T13:15:57;11.15;;;10.35;;
30080;SDS011;16902;50.816;12.828;2023-01-01T13:21:03;11.77;;;10.48;;
30080;SDS011;16902;50.816;12.828;2023-01-01T13:32:09;10.88;;;10.07;;
30080;SDS011;16902;50.816;12.828;2023-01-01T13:36:48;12.82;;;10.95;;
30080;SDS011;16902;50.816;12.828;2023-01-01T13:41:50;13.13;;;10.95;;
30080;SDS011;16902;50.816;12.828;2023-01-01T13:57:46;12.57;;;11.00;;
30080;SDS011;16902;50.816;12.828;2023-01-01T14:03:18;11.88;;;10.63;;
30080;SDS011;16902;50.816;12.828;2023-01-01T14:13:40;12.95;;;10.40;;
30080;SDS011;16902;50.816;12.828;2023-01-01T14:18:45;12.75;;;11.50;;
30080;SDS011;16902;50.816;12.828;2023-01-01T14:23:55;10.88;;;9.98;;
30080;SDS011;16902;50.816;12.828;2023-01-01T14:28:58;11.57;;;10.60;;
30080;SDS011;16902;50.816;12.828;2023-01-01T14:39:25;10.93;;;9.90;;
30080;SDS011;16902;50.816;12.828;2023-01-01T14:44:33;11.77;;;10.57;;
30080;SDS011;16902;50.816;12.828;2023-01-01T14:49:38;10.98;;;10.00;;
30080;SDS011;16902;50.816;12.828;2023-01-01T14:54:41;11.45;;;10.30;;
30080;SDS011;16902;50.816;12.828;2023-01-01T14:59:45;9.98;;;8.98;;
30080;SDS011;16902;50.816;12.828;2023-01-01T15:04:49;10.48;;;9.60;;
30080;SDS011;16902;50.816;12.828;2023-01-01T15:09:52;10.68;;;9.75;;
30080;SDS011;16902;50.816;12.828;2023-01-01T15:14:55;12.07;;;9.93;;
30080;SDS011;16902;50.816;12.828;2023-01-01T15:19:59;9.82;;;8.98;;
30080;SDS011;16902;50.816;12.828;2023-01-01T15:25:01;10.63;;;9.63;;
30080;SDS011;16902;50.816;12.828;2023-01-01T15:30:04;11.48;;;9.57;;
30080;SDS011;16902;50.816;12.828;2023-01-01T15:40:33;11.18;;;9.77;;
30080;SDS011;16902;50.816;12.828;2023-01-01T15:45:37;10.30;;;9.40;;
30080;SDS011;16902;50.816;12.828;2023-01-01T15:50:42;11.25;;;9.35;;
30080;SDS011;16902;50.816;12.828;2023-01-01T15:55:57;11.00;;;10.05;;
30080;SDS011;16902;50.816;12.828;2023-01-01T16:01:07;11.38;;;10.30;;
30080;SDS011;16902;50.816;12.828;2023-01-01T16:06:15;11.75;;;10.40;;
30080;SDS011;16902;50.816;12.828;2023-01-01T16:11:18;11.48;;;10.40;;
30080;SDS011;16902;50.816;12.828;2023-01-01T16:16:22;11.63;;;10.45;;
30080;SDS011;16902;50.816;12.828;2023-01-01T16:21:30;11.45;;;10.45;;
30080;SDS011;16902;50.816;12.828;2023-01-01T16:26:36;12.05;;;10.85;;
30080;SDS011;16902;50.816;12.828;2023-01-01T16:31:38;11.38;;;10.05;;
30080;SDS011;16902;50.816;12.828;2023-01-01T16:36:41;10.18;;;9.43;;
30080;SDS011;16902;50.816;12.828;2023-01-01T16:41:43;9.88;;;9.07;;
30080;SDS011;16902;50.816;12.828;2023-01-01T16:46:45;11.45;;;9.57;;
30080;SDS011;16902;50.816;12.828;2023-01-01T16:51:47;10.10;;;9.10;;
30080;SDS011;16902;50.816;12.828;2023-01-01T16:56:50;10.30;;;9.32;;
30080;SDS011;16902;50.816;12.828;2023-01-01T17:01:52;11.52;;;10.35;;
30080;SDS011;16902;50.816;12.828;2023-01-01T17:06:54;10.77;;;9.68;;
30080;SDS011;16902;50.816;12.828;2023-01-01T17:11:56;16.83;;;14.38;;
30080;SDS011;16902;50.816;12.828;2023-01-01T17:16:58;12.95;;;10.57;;
30080;SDS011;16902;50.816;12.828;2023-01-01T17:22:00;12.35;;;11.25;;
30080;SDS011;16902;50.816;12.828;2023-01-01T17:27:02;13.55;;;12.27;;
30080;SDS011;16902;50.816;12.828;2023-01-01T17:32:04;15.48;;;11.55;;
30080;SDS011;16902;50.816;12.828;2023-01-01T17:37:06;11.05;;;9.95;;
30080;SDS011;16902;50.816;12.828;2023-01-01T17:42:08;13.77;;;10.32;;
30080;SDS011;16902;50.816;12.828;2023-01-01T17:47:10;15.07;;;10.25;;
30080;SDS011;16902;50.816;12.828;2023-01-01T17:52:12;11.40;;;10.18;;
30080;SDS011;16902;50.816;12.828;2023-01-01T17:57:13;10.57;;;9.45;;
30080;SDS011;16902;50.816;12.828;2023-01-01T18:02:16;11.10;;;9.40;;
30080;SDS011;16902;50.816;12.828;2023-01-01T18:07:18;12.10;;;10.00;;
30080;SDS011;16902;50.816;12.828;2023-01-01T18:12:20;10.60;;;9.50;;
30080;SDS011;16902;50.816;12.828;2023-01-01T18:17:22;10.55;;;9.30;;
30080;SDS011;16902;50.816;12.828;2023-01-01T18:22:23;10.27;;;9.07;;
30080;SDS011;16902;50.816;12.828;2023-01-01T18:27:25;9.73;;;8.73;;
30080;SDS011;16902;50.816;12.828;2023-01-01T18:32:27;11.23;;;9.88;;
30080;SDS011;16902;50.816;12.828;2023-01-01T18:37:29;11.95;;;10.75;;
30080;SDS011;16902;50.816;12.828;2023-01-01T18:47:54;27.60;;;24.70;;
30080;SDS011;16902;50.816;12.828;2023-01-01T18:53:16;26.77;;;23.95;;
30080;SDS011;16902;50.816;12.828;2023-01-01T19:26:28;11.05;;;9.20;;
30080;SDS011;16902;50.816;12.828;2023-01-01T19:31:35;11.00;;;9.63;;
30080;SDS011;16902;50.816;12.828;2023-01-01T19:36:37;12.02;;;10.73;;
30080;SDS011;16902;50.816;12.828;2023-01-01T19:41:39;14.75;;;10.40;;
30080;SDS011;16902;50.816;12.828;2023-01-01T19:46:41;10.85;;;9.70;;
30080;SDS011;16902;50.816;12.828;2023-01-01T19:51:43;11.93;;;10.05;;
30080;SDS011;16902;50.816;12.828;2023-01-01T19:56:45;12.50;;;10.40;;
30080;SDS011;16902;50.816;12.828;2023-01-01T20:01:47;12.18;;;9.60;;
30080;SDS011;16902;50.816;12.828;2023-01-01T20:07:09;12.30;;;9.32;;
30080;SDS011;16902;50.816;12.828;2023-01-01T20:12:11;12.15;;;9.95;;
30080;SDS011;16902;50.816;12.828;2023-01-01T20:17:14;12.82;;;9.07;;
30080;SDS011;16902;50.816;12.828;2023-01-01T20:22:18;12.23;;;8.50;;
30080;SDS011;16902;50.816;12.828;2023-01-01T20:27:22;14.52;;;8.32;;
30080;SDS011;16902;50.816;12.828;2023-01-01T20:32:27;10.63;;;8.02;;
30080;SDS011;16902;50.816;12.828;2023-01-01T20:37:29;10.30;;;7.93;;
30080;SDS011;16902;50.816;12.828;2023-01-01T20:42:37;12.90;;;8.05;;
30080;SDS011;16902;50.816;12.828;2023-01-01T20:47:38;10.38;;;8.15;;
30080;SDS011;16902;50.816;12.828;2023-01-01T20:52:41;10.38;;;8.52;;
30080;SDS011;16902;50.816;12.828;2023-01-01T20:57:43;9.77;;;7.25;;
30080;SDS011;16902;50.816;12.828;2023-01-01T21:02:44;11.00;;;6.97;;
30080;SDS011;16902;50.816;12.828;2023-01-01T21:07:46;9.13;;;7.43;;
30080;SDS011;16902;50.816;12.828;2023-01-01T21:12:48;10.48;;;7.50;;
30080;SDS011;16902;50.816;12.828;2023-01-01T21:17:50;8.98;;;6.95;;
30080;SDS011;16902;50.816;12.828;2023-01-01T21:22:52;11.82;;;7.32;;
30080;SDS011;16902;50.816;12.828;2023-01-01T21:27:57;11.68;;;7.93;;
30080;SDS011;16902;50.816;12.828;2023-01-01T21:32:59;9.30;;;7.22;;
30080;SDS011;16902;50.816;12.828;2023-01-01T21:38:02;10.02;;;7.13;;
30080;SDS011;16902;50.816;12.828;2023-01-01T21:48:41;9.20;;;6.75;;
30080;SDS011;16902;50.816;12.828;2023-01-01T21:53:49;10.90;;;7.28;;
30080;SDS011;16902;50.816;12.828;2023-01-01T21:58:51;12.07;;;7.97;;
30080;SDS011;16902;50.816;12.828;2023-01-01T22:04:22;11.35;;;7.28;;
30080;SDS011;16902;50.816;12.828;2023-01-01T22:09:28;11.98;;;7.38;;
30080;SDS011;16902;50.816;12.828;2023-01-01T22:14:35;9.73;;;7.45;;
30080;SDS011;16902;50.816;12.828;2023-01-01T22:19:39;10.95;;;8.20;;
30080;SDS011;16902;50.816;12.828;2023-01-01T22:24:43;12.20;;;8.18;;
30080;SDS011;16902;50.816;12.828;2023-01-01T22:29:50;9.13;;;7.57;;
30080;SDS011;16902;50.816;12.828;2023-01-01T22:34:54;10.95;;;7.72;;
30080;SDS011;16902;50.816;12.828;2023-01-01T22:40:06;10.07;;;7.82;;
30080;SDS011;16902;50.816;12.828;2023-01-01T22:45:18;11.02;;;7.65;;
30080;SDS011;16902;50.816;12.828;2023-01-01T22:50:20;12.50;;;8.88;;
30080;SDS011;16902;50.816;12.828;2023-01-01T22:55:23;12.55;;;8.48;;
30080;SDS011;16902;50.816;12.828;2023-01-01T23:00:25;15.90;;;10.15;;
30080;SDS011;16902;50.816;12.828;2023-01-01T23:05:27;30.73;;;14.75;;
30080;SDS011;16902;50.816;12.828;2023-01-01T23:10:29;23.65;;;13.85;;
30080;SDS011;16902;50.816;12.828;2023-01-01T23:15:32;22.80;;;12.60;;
30080;SDS011;16902;50.816;12.828;2023-01-01T23:20:56;20.92;;;11.10;;
30080;SDS011;16902;50.816;12.828;2023-01-01T23:25:59;12.60;;;8.63;;
30080;SDS011;16902;50.816;12.828;2023-01-01T23:31:01;15.18;;;8.70;;
30080;SDS011;16902;50.816;12.828;2023-01-01T23:36:06;13.93;;;8.70;;
30080;SDS011;16902;50.816;12.828;2023-01-01T23:41:09;10.27;;;8.55;;
30080;SDS011;16902;50.816;12.828;2023-01-01T23:46:14;12.25;;;8.05;;
30080;SDS011;16902;50.816;12.828;2023-01-01T23:51:18;15.45;;;9.05;;
30080;SDS011;16902;50.816;12.828;2023-01-01T23:56:20;11.70;;;8.95;;
